Time;durP1;ratioP1;P1;durP2;ratioP2;P2;SDS_P1;SDS_P2;PMS_P1;PMS_P2;Temp;Humidity;BMP_temperature;BMP_pressure;BME280_temperature;BME280_humidity;BME280_pressure;Samples;Min_cycle;Max_cycle;Signal;HPM_P1;HPM_P2
2021/12/05 00:21:29;;;;;;;15.95;13.72;;;;;;;9.70;55.36;99257.20;1834125;77;20998;-62
2021/12/05 00:23:44;;;;;;;16.32;14.30;;;;;;;9.69;55.34;99260.84;1826056;77;21091;-62
2021/12/05 00:26:12;;;;;;;17.73;14.18;;;;;;;9.67;55.33;99264.98;1835936;77;21586;-61
2021/12/05 01:14:23;;;;;;;15.88;13.20;;;;;;;9.52;54.97;99275.52;1815419;77;21001;-63
2021/12/05 01:16:38;;;;;;;15.63;13.93;;;;;;;9.52;54.96;99276.84;1820818;78;21934;-64
2021/12/05 01:19:07;;;;;;;14.95;13.00;;;;;;;9.52;54.94;99278.17;1822194;77;21013;-63
2021/12/05 01:21:36;;;;;;;15.45;13.35;;;;;;;9.51;54.90;99272.53;1785145;78;21112;-62
2021/12/05 01:24:20;;;;;;;16.67;13.58;;;;;;;9.52;54.89;99283.47;1812940;78;20989;-62
2021/12/05 01:26:48;;;;;;;16.35;12.93;;;;;;;9.52;54.84;99291.42;1810119;78;21072;-62
2021/12/05 01:34:25;;;;;;;15.65;13.25;;;;;;;9.52;54.74;99288.78;1818259;77;21498;-63
2021/12/05 02:08:22;;;;;;;15.68;12.80;;;;;;;9.45;54.51;99279.34;1816647;77;21021;-62
2021/12/05 02:10:48;;;;;;;13.35;11.65;;;;;;;9.45;54.50;99277.20;1821844;77;21056;-61
2021/12/05 02:16:03;;;;;;;13.65;12.18;;;;;;;9.43;54.48;99275.22;1824709;77;21007;-61
2021/12/05 02:29:43;;;;;;;12.58;11.20;;;;;;;9.38;54.41;99270.41;1830307;77;20993;-62
2021/12/05 02:34:48;;;;;;;13.58;11.97;;;;;;;9.36;54.40;99284.34;1830179;77;21010;-62
2021/12/05 02:42:35;;;;;;;12.95;11.53;;;;;;;9.34;54.35;99275.73;1829721;77;21580;-62
2021/12/05 02:44:53;;;;;;;13.05;11.12;;;;;;;9.35;54.34;99273.91;1821288;77;20978;-61
2021/12/05 02:47:24;;;;;;;12.47;11.10;;;;;;;9.33;54.32;99264.82;1773730;80;21023;-61
2021/12/05 02:49:54;;;;;;;14.85;12.23;;;;;;;9.34;54.29;99265.64;1788588;79;21030;-62
2021/12/05 02:52:28;;;;;;;13.40;11.48;;;;;;;9.32;54.28;99256.53;1768281;79;21165;-61
2021/12/05 02:54:57;;;;;;;13.97;11.07;;;;;;;9.35;54.26;99264.63;1795815;79;21011;-63
2021/12/05 02:57:47;;;;;;;14.10;11.57;;;;;;;9.33;54.21;99261.32;1771490;79;21542;-61
2021/12/05 02:59:59;;;;;;;15.10;11.83;;;;;;;9.33;54.19;99253.37;1778698;79;21029;-61
2021/12/05 03:02:38;;;;;;;13.00;10.78;;;;;;;9.33;54.17;99252.05;1773766;80;21046;-61
2021/12/05 03:04:58;;;;;;;13.68;11.60;;;;;;;9.33;54.15;99246.74;1804684;79;23363;-61
2021/12/05 03:07:27;;;;;;;12.43;11.05;;;;;;;9.31;54.13;99241.64;1771129;79;21108;-62
2021/12/05 03:09:50;;;;;;;13.75;11.40;;;;;;;9.32;54.12;99234.50;1775357;80;21013;-62
2021/12/05 03:12:19;;;;;;;14.03;11.85;;;;;;;9.32;54.06;99238.48;1759742;80;20990;-62
2021/12/05 03:14:46;;;;;;;14.07;11.75;;;;;;;9.32;54.05;99245.11;1792646;79;21041;-62
2021/12/05 03:17:15;;;;;;;12.45;10.65;;;;;;;9.32;54.01;99237.16;1775532;80;21007;-61
2021/12/05 03:19:43;;;;;;;11.88;10.53;;;;;;;9.32;54.00;99231.34;1804902;79;21065;-62
2021/12/05 03:22:10;;;;;;;14.85;12.30;;;;;;;9.32;53.98;99229.20;1759600;79;21562;-61
2021/12/05 03:24:38;;;;;;;13.98;11.53;;;;;;;9.31;53.96;99228.86;1806659;79;21017;-61
2021/12/05 03:27:06;;;;;;;13.65;11.75;;;;;;;9.31;53.94;99223.55;1812206;78;21104;-61
2021/12/05 03:29:35;;;;;;;12.25;10.95;;;;;;;9.30;53.91;99218.77;1833729;77;21091;-62
2021/12/05 03:32:02;;;;;;;12.20;10.80;;;;;;;9.30;53.92;99223.25;1841714;77;21487;-61
2021/12/05 03:34:29;;;;;;;13.40;11.50;;;;;;;9.29;53.89;99217.13;1837008;77;20986;-61
2021/12/05 03:36:57;;;;;;;13.38;10.78;;;;;;;9.30;53.88;99217.95;1826454;77;21542;-61
2021/12/05 03:39:25;;;;;;;14.33;11.25;;;;;;;9.29;53.86;99217.13;1833865;77;21525;-62
2021/12/05 03:41:55;;;;;;;12.95;11.10;;;;;;;9.29;53.83;99213.63;1841465;77;21047;-61
2021/12/05 03:44:26;;;;;;;12.23;10.90;;;;;;;9.28;53.82;99220.77;1822231;77;21030;-61
2021/12/05 03:46:54;;;;;;;14.58;11.85;;;;;;;9.27;53.82;99219.61;1815451;77;21509;-60
2021/12/05 03:49:22;;;;;;;12.80;10.80;;;;;;;9.25;53.80;99213.14;1763876;80;21070;-61
2021/12/05 03:51:56;;;;;;;15.03;10.95;;;;;;;9.24;53.81;99212.33;1809966;79;21030;-61
2021/12/05 03:54:23;;;;;;;14.07;11.03;;;;;;;9.24;53.80;99213.65;1788339;79;21795;-60
2021/12/05 03:56:50;;;;;;;14.10;11.20;;;;;;;9.24;53.76;99214.98;1745474;80;20999;-61
2021/12/05 03:59:17;;;;;;;13.88;11.60;;;;;;;9.24;53.76;99214.16;1800497;79;21022;-61
2021/12/05 04:01:47;;;;;;;12.55;10.78;;;;;;;9.23;53.78;99217.31;1795275;79;21572;-61
2021/12/05 04:04:17;;;;;;;12.25;10.65;;;;;;;9.22;53.72;99202.91;1782676;79;21022;-61
2021/12/05 04:06:45;;;;;;;12.73;10.70;;;;;;;9.22;53.75;99216.16;1791957;79;22367;-65
2021/12/05 04:09:12;;;;;;;13.38;10.95;;;;;;;9.22;53.71;99220.95;1806000;79;21049;-61
2021/12/05 04:11:44;;;;;;;12.85;11.10;;;;;;;9.21;53.70;99226.41;1794155;79;21458;-60
2021/12/05 04:14:11;;;;;;;13.58;11.03;;;;;;;9.20;53.69;99230.90;1782541;79;21030;-61
2021/12/05 04:16:39;;;;;;;12.30;11.00;;;;;;;9.20;53.67;99228.76;1784694;79;21037;-62
2021/12/05 04:19:06;;;;;;;14.85;11.10;;;;;;;9.19;53.65;99227.09;1778432;79;21132;-61
2021/12/05 04:21:36;;;;;;;12.50;10.90;;;;;;;9.19;53.65;99222.64;1761332;80;22003;-62
2021/12/05 04:24:05;;;;;;;12.20;10.90;;;;;;;9.18;53.60;99231.57;1790249;79;21495;-61
2021/12/05 04:26:31;;;;;;;12.75;11.12;;;;;;;9.17;53.60;99235.20;1736783;79;21101;-61
2021/12/05 04:28:58;;;;;;;14.70;11.48;;;;;;;9.17;53.57;99227.77;1788517;78;21005;-62
2021/12/05 04:31:25;;;;;;;14.33;11.20;;;;;;;9.17;53.58;99238.36;1761925;80;21573;-62
2021/12/05 04:33:52;;;;;;;13.05;11.48;;;;;;;9.17;53.56;99244.98;1841855;77;21015;-63
2021/12/05 04:36:19;;;;;;;14.63;10.90;;;;;;;9.15;53.53;99242.50;1773036;80;21484;-61
2021/12/05 04:38:47;;;;;;;12.50;10.75;;;;;;;9.16;53.50;99240.70;1749649;80;21530;-60
2021/12/05 04:41:14;;;;;;;14.05;10.72;;;;;;;9.16;53.50;99249.47;1761392;80;21042;-62
2021/12/05 04:43:41;;;;;;;11.97;10.72;;;;;;;9.15;53.48;99250.45;1767176;80;21561;-61
2021/12/05 04:46:11;;;;;;;12.18;10.88;;;;;;;9.15;53.47;99251.78;1758784;80;21030;-61
2021/12/05 04:48:38;;;;;;;13.40;10.98;;;;;;;9.14;53.46;99255.44;1760448;80;21081;-61
2021/12/05 04:51:05;;;;;;;12.15;9.95;;;;;;;9.13;53.45;99255.09;1831150;77;20998;-61
2021/12/05 04:53:32;;;;;;;13.55;10.82;;;;;;;9.13;53.42;99251.63;1814609;78;21519;-61
2021/12/05 04:55:59;;;;;;;12.45;11.15;;;;;;;9.12;53.41;99244.19;1817947;77;22355;-61
2021/12/05 04:58:26;;;;;;;12.33;10.85;;;;;;;9.12;53.39;99252.14;1832898;77;21064;-61
2021/12/05 05:00:54;;;;;;;11.33;9.73;;;;;;;9.11;53.38;99254.45;1827750;77;21049;-61
2021/12/05 05:03:20;;;;;;;12.10;10.48;;;;;;;9.11;53.38;99263.72;1822725;77;21048;-61
2021/12/05 05:05:53;;;;;;;11.93;10.18;;;;;;;9.10;53.37;99265.20;1829991;77;21434;-61
2021/12/05 05:08:17;;;;;;;12.85;10.90;;;;;;;9.09;53.35;99264.89;1829540;77;21151;-61
2021/12/05 05:10:43;;;;;;;14.18;11.15;;;;;;;9.09;53.34;99270.20;1817868;77;20998;-61
2021/12/05 05:13:10;;;;;;;13.85;10.85;;;;;;;9.09;53.33;99267.55;1833428;77;21616;-61
2021/12/05 05:15:36;;;;;;;11.43;10.20;;;;;;;9.08;53.35;99269.85;1835511;77;20990;-60
2021/12/05 05:18:04;;;;;;;12.53;10.68;;;;;;;9.08;53.34;99273.83;1816694;77;21039;-60
2021/12/05 05:20:47;;;;;;;12.88;10.90;;;;;;;9.07;53.32;99274.84;1833382;77;21121;-60
2021/12/05 05:23:39;;;;;;;13.22;10.98;;;;;;;9.07;53.29;99283.61;1837853;77;21026;-60
2021/12/05 05:46:55;;;;;;;11.75;9.90;;;;;;;8.98;53.24;99260.30;1835720;78;21119;-61
2021/12/05 05:49:23;;;;;;;14.13;10.75;;;;;;;8.97;53.21;99244.05;1825468;78;21072;-61
2021/12/05 05:51:47;;;;;;;12.88;10.13;;;;;;;8.98;53.19;99236.93;1804516;78;21018;-62
2021/12/05 05:54:14;;;;;;;10.43;9.28;;;;;;;8.96;53.18;99239.77;1819968;78;21081;-61
2021/12/05 05:56:43;;;;;;;12.33;10.35;;;;;;;8.96;53.16;99241.57;1808274;78;21577;-61
2021/12/05 05:59:37;;;;;;;12.50;10.38;;;;;;;8.96;53.17;99238.92;1828182;78;21309;-61
2021/12/05 06:04:15;;;;;;;12.25;10.23;;;;;;;8.96;53.14;99260.11;1815103;78;21052;-62
2021/12/05 06:06:42;;;;;;;12.65;10.50;;;;;;;8.95;53.11;99264.59;1810630;78;21541;-62
2021/12/05 06:09:09;;;;;;;11.20;9.33;;;;;;;8.94;53.08;99266.91;1829668;78;20979;-61
2021/12/05 06:11:36;;;;;;;12.50;9.78;;;;;;;8.95;53.06;99266.42;1836893;78;21138;-62
2021/12/05 06:14:03;;;;;;;10.55;9.05;;;;;;;8.96;53.04;99276.02;1812938;78;21069;-62
2021/12/05 06:16:30;;;;;;;12.98;10.85;;;;;;;8.96;53.01;99282.16;1832458;78;21065;-63
2021/12/05 06:18:58;;;;;;;11.50;10.08;;;;;;;8.96;53.00;99274.69;1823769;78;21017;-61
2021/12/05 06:21:24;;;;;;;11.65;9.70;;;;;;;8.96;52.99;99276.86;1832815;78;21065;-64
2021/12/05 06:23:51;;;;;;;10.78;9.35;;;;;;;8.96;52.96;99270.72;1814888;78;21095;-61
2021/12/05 06:26:22;;;;;;;9.88;8.85;;;;;;;8.96;52.94;99278.19;1834392;78;20997;-63
2021/12/05 06:29:41;;;;;;;11.53;9.98;;;;;;;8.96;52.90;99284.81;1836998;78;21506;-61
2021/12/05 06:31:50;;;;;;;10.85;9.75;;;;;;;8.97;52.90;99285.13;1804974;77;20998;-62
2021/12/05 06:36:57;;;;;;;11.35;10.05;;;;;;;8.98;52.84;99288.59;1814762;79;21987;-61
2021/12/05 06:39:39;;;;;;;11.15;9.55;;;;;;;8.98;52.82;99300.04;1838197;77;21029;-62
2021/12/05 06:47:16;;;;;;;11.48;10.13;;;;;;;9.00;52.76;99310.44;1829328;77;21033;-63
2021/12/05 06:49:43;;;;;;;10.68;9.30;;;;;;;8.98;52.74;99313.76;1821942;77;21116;-61
2021/12/05 06:52:09;;;;;;;11.35;9.53;;;;;;;9.00;52.73;99319.72;1843630;76;21443;-61
2021/12/05 06:54:36;;;;;;;11.80;9.75;;;;;;;9.01;52.71;99317.41;1840014;77;21005;-61
2021/12/05 06:57:05;;;;;;;11.10;9.90;;;;;;;9.03;52.68;99318.06;1835567;77;21526;-62
2021/12/05 06:59:31;;;;;;;10.88;9.28;;;;;;;9.03;52.66;99322.86;1845098;77;21072;-61
2021/12/05 07:01:58;;;;;;;11.38;10.00;;;;;;;9.05;52.65;99333.30;1837917;77;21145;-62
2021/12/05 07:06:56;;;;;;;12.40;9.73;;;;;;;9.08;52.55;99327.67;1835929;77;21568;-61
2021/12/05 07:09:23;;;;;;;9.40;8.45;;;;;;;9.09;52.53;99331.96;1828728;77;21345;-62
2021/12/05 07:12:22;;;;;;;11.25;9.30;;;;;;;9.10;52.51;99325.68;1825909;77;21049;-62
2021/12/05 07:17:07;;;;;;;12.30;9.43;;;;;;;9.12;52.45;99323.69;1842832;77;21491;-61
2021/12/05 07:19:44;;;;;;;11.43;9.15;;;;;;;9.14;52.45;99324.34;1821330;77;21057;-61
2021/12/05 07:22:14;;;;;;;12.10;9.73;;;;;;;9.14;52.41;99319.05;1829456;77;20974;-62
2021/12/05 07:24:40;;;;;;;10.38;9.28;;;;;;;9.15;52.40;99319.36;1832723;77;21049;-61
2021/12/05 07:40:23;;;;;;;10.70;9.48;;;;;;;9.19;52.35;99317.20;1822509;77;21014;-61
2021/12/05 07:42:53;;;;;;;12.15;9.78;;;;;;;9.23;52.28;99320.69;1841833;77;21010;-61
2021/12/05 07:45:24;;;;;;;11.25;10.05;;;;;;;9.23;52.26;99327.31;1836598;77;20981;-62
2021/12/05 07:47:55;;;;;;;10.53;9.15;;;;;;;9.25;52.27;99322.66;1835156;77;21009;-61
2021/12/05 07:50:17;;;;;;;11.22;10.03;;;;;;;9.27;52.26;99330.42;1844078;77;21013;-62
2021/12/05 07:52:49;;;;;;;11.68;9.20;;;;;;;9.29;52.27;99339.06;1845207;77;23192;-61
2021/12/05 07:55:19;;;;;;;10.10;9.08;;;;;;;9.30;52.23;99335.91;1846023;77;21064;-61
2021/12/05 08:00:34;;;;;;;12.13;9.25;;;;;;;9.35;52.19;99348.98;1842790;77;21521;-60
2021/12/05 08:16:41;;;;;;;10.82;9.48;;;;;;;9.42;52.09;99369.81;1838283;77;21055;-62
2021/12/05 08:19:05;;;;;;;10.88;9.68;;;;;;;9.43;52.04;99366.19;1841559;77;21282;-62
2021/12/05 08:21:32;;;;;;;11.57;9.45;;;;;;;9.45;52.02;99361.53;1836285;77;21049;-62
2021/12/05 08:23:59;;;;;;;12.70;10.10;;;;;;;9.49;51.99;99359.38;1815946;77;21490;-62
2021/12/05 08:26:32;;;;;;;11.18;9.45;;;;;;;9.53;51.93;99363.34;1827734;77;21023;-60
2021/12/05 08:29:07;;;;;;;9.75;8.73;;;;;;;9.57;51.88;99350.06;1820163;77;21001;-61
2021/12/05 08:37:08;;;;;;;12.58;9.95;;;;;;;9.76;51.72;99344.03;1844084;77;21029;-61
2021/12/05 08:39:35;;;;;;;11.65;9.60;;;;;;;9.83;51.67;99337.87;1841524;77;21459;-62
2021/12/05 09:19:55;;;;;;;10.35;9.10;;;;;;;10.77;51.38;99323.14;1834102;77;21023;-63
2021/12/05 09:27:53;;;;;;;11.55;9.28;;;;;;;11.33;50.95;99323.27;1831853;77;21017;-64
2021/12/05 09:52:11;;;;;;;10.00;9.00;;;;;;;11.89;50.33;99320.95;1848680;77;22095;-64
2021/12/05 10:02:49;;;;;;;10.30;9.23;;;;;;;12.12;50.11;99321.31;1824699;77;21064;-65
2021/12/05 10:10:49;;;;;;;9.38;8.45;;;;;;;12.27;49.93;99324.76;1849389;77;20996;-65
2021/12/05 10:13:14;;;;;;;11.00;9.68;;;;;;;12.33;49.90;99329.84;1824488;77;20990;-65
2021/12/05 10:38:19;;;;;;;10.48;9.48;;;;;;;12.73;49.34;99337.70;1849922;77;21034;-65
2021/12/05 10:41:18;;;;;;;10.13;8.88;;;;;;;12.76;49.30;99335.96;1819091;77;21079;-65
2021/12/05 10:43:31;;;;;;;12.50;9.05;;;;;;;12.80;49.20;99343.07;1829544;77;21005;-64
2021/12/05 10:46:10;;;;;;;9.90;8.90;;;;;;;12.83;49.17;99341.37;1829053;76;21101;-64
2021/12/05 10:48:42;;;;;;;11.97;9.78;;;;;;;12.88;49.11;99342.11;1821792;77;21025;-64
2021/12/05 10:51:20;;;;;;;10.25;9.13;;;;;;;12.92;49.05;99343.37;1815010;77;21092;-64
2021/12/05 10:53:49;;;;;;;10.08;9.03;;;;;;;12.94;49.01;99332.00;1828339;77;21430;-65
2021/12/05 10:56:30;;;;;;;10.60;9.60;;;;;;;12.98;48.92;99322.11;1852099;77;21024;-64
2021/12/05 10:59:10;;;;;;;10.45;9.35;;;;;;;13.02;48.85;99326.55;1848083;77;21164;-64
2021/12/05 11:01:43;;;;;;;10.58;9.45;;;;;;;13.06;48.76;99337.66;1833421;77;21033;-63
2021/12/05 11:04:24;;;;;;;11.93;10.72;;;;;;;13.09;48.73;99339.91;1836348;77;21009;-62
2021/12/05 11:07:11;;;;;;;10.75;9.65;;;;;;;13.13;48.66;99335.84;1816868;77;21085;-64
2021/12/05 11:09:43;;;;;;;12.80;10.25;;;;;;;13.15;48.61;99335.98;1847585;77;21529;-61
2021/12/05 11:12:31;;;;;;;10.67;9.30;;;;;;;13.17;48.51;99328.60;1850505;77;21087;-61
2021/12/05 11:15:03;;;;;;;10.25;9.25;;;;;;;13.18;48.46;99332.91;1850751;77;21027;-61
2021/12/05 11:17:37;;;;;;;10.50;9.35;;;;;;;13.21;48.37;99333.53;1822932;77;21044;-61
2021/12/05 11:20:21;;;;;;;10.72;9.65;;;;;;;13.21;48.32;99324.20;1856926;77;21032;-62
2021/12/05 11:22:47;;;;;;;9.33;8.38;;;;;;;13.23;48.27;99319.48;1809340;78;21537;-64
2021/12/05 11:25:23;;;;;;;9.95;8.95;;;;;;;13.23;48.21;99315.00;1816736;78;21719;-61
2021/12/05 11:27:58;;;;;;;11.12;9.93;;;;;;;13.23;48.13;99315.48;1782955;80;21075;-61
2021/12/05 11:30:33;;;;;;;10.03;9.03;;;;;;;13.18;48.07;99298.75;1769047;79;21058;-62
2021/12/05 11:33:20;;;;;;;10.43;9.33;;;;;;;13.25;48.05;99300.95;1790990;79;21069;-62
2021/12/05 11:35:48;;;;;;;;;;;;;;;13.25;48.01;99308.95;1789965;78;21081;-63
2021/12/05 11:38:22;;;;;;;10.50;8.55;;;;;;;13.26;47.94;99308.44;1753185;80;21112;-62
2021/12/05 11:41:06;;;;;;;11.03;8.53;;;;;;;13.23;47.96;99304.33;1787758;79;21041;-63
2021/12/05 11:43:49;;;;;;;9.58;8.45;;;;;;;13.23;47.92;99301.66;1795994;79;21040;-65
2021/12/05 11:46:29;;;;;;;10.48;9.40;;;;;;;13.24;47.85;99304.62;1760049;79;21058;-63
2021/12/05 11:49:05;;;;;;;10.55;8.65;;;;;;;13.25;47.79;99305.44;1751459;81;21007;-62
2021/12/05 11:51:44;;;;;;;9.10;7.87;;;;;;;13.23;47.73;99304.81;1742039;81;21201;-63
2021/12/05 11:54:33;;;;;;;10.25;9.00;;;;;;;13.23;47.71;99302.15;1745063;81;21498;-62
2021/12/05 11:57:16;;;;;;;9.73;8.83;;;;;;;13.23;47.68;99306.16;1750730;81;21037;-62
2021/12/05 11:59:52;;;;;;;9.45;8.25;;;;;;;13.21;47.65;99311.67;1753918;81;27028;-63
2021/12/05 12:02:26;;;;;;;10.63;9.38;;;;;;;13.18;47.61;99304.90;1723701;81;21695;-64
2021/12/05 12:04:58;;;;;;;8.90;8.00;;;;;;;13.18;47.57;99315.56;1770361;80;21155;-63
2021/12/05 12:07:41;;;;;;;9.33;8.35;;;;;;;13.17;47.55;99305.09;1750700;81;21064;-63
2021/12/05 12:10:22;;;;;;;9.68;8.73;;;;;;;13.16;47.49;99294.94;1761748;81;24622;-63
2021/12/05 12:13:06;;;;;;;9.98;7.92;;;;;;;13.14;47.46;99301.50;1711425;80;21034;-61
2021/12/05 12:15:33;;;;;;;9.40;7.83;;;;;;;13.13;47.45;99298.50;1747487;81;21041;-62
2021/12/05 12:18:18;;;;;;;9.20;8.28;;;;;;;13.11;47.43;99285.36;1750111;81;21307;-63
2021/12/05 12:20:34;;;;;;;8.88;7.97;;;;;;;13.08;47.41;99280.95;1747557;81;21057;-62
2021/12/05 12:23:00;;;;;;;10.40;7.80;;;;;;;13.08;47.40;99284.43;1754021;80;21549;-62
2021/12/05 12:25:30;;;;;;;9.18;8.28;;;;;;;13.08;47.36;99294.28;1754161;81;21088;-61
2021/12/05 12:27:57;;;;;;;9.93;8.88;;;;;;;13.05;47.35;99291.48;1753932;81;21163;-62
2021/12/05 12:30:27;;;;;;;9.70;8.15;;;;;;;13.05;47.33;99293.33;1755152;81;22024;-63
2021/12/05 12:33:08;;;;;;;9.28;8.28;;;;;;;13.04;47.29;99298.33;1753955;81;20983;-61
2021/12/05 12:35:35;;;;;;;9.25;8.28;;;;;;;13.02;47.29;99303.03;1757830;81;22303;-64
2021/12/05 12:38:13;;;;;;;10.05;8.95;;;;;;;12.99;47.25;99307.73;1761776;81;21014;-62
2021/12/05 12:40:53;;;;;;;8.95;8.05;;;;;;;12.96;47.27;99308.14;1758434;81;21073;-62
2021/12/05 12:43:45;;;;;;;9.60;8.43;;;;;;;12.93;47.27;99305.86;1748296;80;21992;-61
2021/12/05 12:46:33;;;;;;;8.95;8.00;;;;;;;12.91;47.25;99308.41;1769611;79;21042;-61
2021/12/05 12:49:21;;;;;;;10.70;8.60;;;;;;;12.86;47.27;99311.64;1783918;80;21549;-64
2021/12/05 12:51:59;;;;;;;9.75;7.40;;;;;;;12.81;47.31;99325.27;1782204;80;21529;-62
2021/12/05 12:54:43;;;;;;;10.63;8.53;;;;;;;12.76;47.32;99317.82;1783874;80;20998;-62
2021/12/05 12:57:14;;;;;;;9.03;8.10;;;;;;;12.70;47.35;99319.41;1783715;80;21202;-62
2021/12/05 12:59:59;;;;;;;9.10;8.15;;;;;;;12.65;47.38;99320.52;1791554;80;21041;-62
2021/12/05 13:11:11;;;;;;;9.68;8.68;;;;;;;12.43;47.58;99329.52;1752449;80;21127;-62
2021/12/05 13:13:42;;;;;;;11.38;9.18;;;;;;;12.37;47.63;99330.59;1784314;80;21073;-62
2021/12/05 13:16:19;;;;;;;8.90;8.00;;;;;;;12.32;47.66;99329.02;1787752;80;21613;-62
2021/12/05 13:18:49;;;;;;;9.85;8.25;;;;;;;12.26;47.69;99331.59;1785701;80;21010;-63
2021/12/05 13:21:36;;;;;;;9.90;8.45;;;;;;;12.22;47.74;99325.82;1789955;80;21493;-64
2021/12/05 13:23:57;;;;;;;9.28;8.13;;;;;;;12.17;47.75;99329.58;1777265;80;21187;-63
2021/12/05 13:26:39;;;;;;;10.58;8.53;;;;;;;12.12;47.83;99312.00;1786217;80;21010;-63
2021/12/05 13:29:18;;;;;;;9.75;8.53;;;;;;;12.08;47.86;99318.20;1785676;80;21005;-63
2021/12/05 13:32:12;;;;;;;10.78;8.48;;;;;;;12.04;47.87;99330.76;1765556;80;21509;-62
2021/12/05 13:34:49;;;;;;;9.93;8.93;;;;;;;11.99;47.92;99326.83;1783266;80;21988;-62
2021/12/05 13:37:36;;;;;;;11.20;9.48;;;;;;;11.95;47.94;99334.02;1784525;79;21133;-62
2021/12/05 13:40:26;;;;;;;10.25;8.55;;;;;;;11.90;47.99;99331.09;1787579;80;21089;-62
2021/12/05 13:43:03;;;;;;;9.48;8.50;;;;;;;11.85;48.03;99343.60;1782370;80;21059;-62
2021/12/05 13:45:31;;;;;;;11.70;9.13;;;;;;;11.82;48.09;99337.34;1783892;80;21052;-63
2021/12/05 13:48:07;;;;;;;10.23;9.15;;;;;;;11.78;48.08;99329.38;1756873;80;21003;-62
2021/12/05 13:51:00;;;;;;;10.32;8.75;;;;;;;11.75;48.10;99328.44;1748613;80;21033;-62
2021/12/05 13:53:34;;;;;;;9.65;8.48;;;;;;;11.73;48.13;99334.45;1761993;80;21116;-62
2021/12/05 13:56:09;;;;;;;11.57;9.85;;;;;;;11.68;48.15;99337.66;1757790;80;21068;-61
2021/12/05 13:58:45;;;;;;;11.38;9.78;;;;;;;11.64;48.16;99351.01;1762998;80;21607;-63
2021/12/05 14:01:32;;;;;;;10.68;9.50;;;;;;;11.61;48.17;99343.41;1775020;80;21092;-63
2021/12/05 14:04:08;;;;;;;11.68;9.93;;;;;;;11.59;48.19;99354.23;1735114;80;21621;-63
2021/12/05 14:07:01;;;;;;;11.30;9.23;;;;;;;11.56;48.19;99354.59;1763862;80;21651;-62
2021/12/05 14:09:38;;;;;;;10.30;9.08;;;;;;;11.52;48.22;99354.64;1767433;80;21034;-63
2021/12/05 14:12:24;;;;;;;12.07;9.18;;;;;;;11.50;48.24;99356.66;1770015;80;22209;-61
2021/12/05 14:14:50;;;;;;;;;;;;;;;11.46;48.26;99350.06;1760156;80;21045;-63
2021/12/05 14:17:28;;;;;;;11.15;9.95;;;;;;;11.43;48.29;99361.05;1767901;80;21128;-63
2021/12/05 14:20:05;;;;;;;13.83;10.45;;;;;;;11.37;48.35;99357.80;1767168;80;20986;-63
2021/12/05 14:22:34;;;;;;;12.18;9.35;;;;;;;11.35;48.38;99365.14;1764846;80;21069;-62
2021/12/05 14:25:05;;;;;;;13.43;10.80;;;;;;;11.32;48.38;99363.67;1748454;80;21496;-63
2021/12/05 14:27:36;;;;;;;11.43;9.85;;;;;;;11.29;48.38;99368.02;1757186;80;21037;-63
2021/12/05 14:30:10;;;;;;;11.43;10.05;;;;;;;11.29;48.41;99368.53;1772251;80;21109;-63
2021/12/05 14:32:43;;;;;;;11.85;9.58;;;;;;;11.26;48.40;99365.73;1759433;80;21518;-62
2021/12/05 14:35:14;;;;;;;13.08;9.98;;;;;;;11.25;48.42;99368.57;1758992;80;21012;-64
2021/12/05 14:37:42;;;;;;;11.57;9.28;;;;;;;11.21;48.42;99374.23;1763775;80;21061;-63
2021/12/05 14:40:18;;;;;;;13.15;10.45;;;;;;;11.19;48.41;99373.59;1770848;80;21008;-63
2021/12/05 14:42:47;;;;;;;11.40;9.68;;;;;;;11.18;48.40;99378.61;1758336;80;21119;-63
2021/12/05 14:45:19;;;;;;;13.75;10.88;;;;;;;11.15;48.42;99388.27;1763878;80;21073;-64
2021/12/05 14:47:46;;;;;;;11.90;9.88;;;;;;;11.13;48.44;99384.96;1781480;80;21624;-62
2021/12/05 14:50:18;;;;;;;12.10;10.40;;;;;;;11.10;48.45;99380.50;1785542;80;21062;-64
2021/12/05 14:52:48;;;;;;;11.38;9.90;;;;;;;11.10;48.45;99389.30;1786716;79;21052;-62
2021/12/05 14:55:21;;;;;;;13.93;10.82;;;;;;;11.07;48.46;99393.66;1786280;80;21121;-63
2021/12/05 14:57:52;;;;;;;12.73;10.90;;;;;;;11.05;48.47;99393.02;1755593;80;21018;-63
2021/12/05 15:00:26;;;;;;;13.00;10.98;;;;;;;11.04;48.47;99394.01;1786038;80;21085;-63
2021/12/05 15:03:13;;;;;;;14.00;11.43;;;;;;;11.01;48.50;99402.36;1785124;80;21033;-64
2021/12/05 15:05:40;;;;;;;12.18;10.03;;;;;;;10.98;48.53;99405.36;1786484;80;21658;-62
2021/12/05 15:08:14;;;;;;;15.25;11.25;;;;;;;10.94;48.52;99406.73;1788583;80;21167;-62
2021/12/05 15:10:43;;;;;;;13.03;11.28;;;;;;;10.93;48.56;99409.05;1788187;79;21529;-62
2021/12/05 15:13:11;;;;;;;14.78;11.20;;;;;;;10.89;48.57;99409.91;1787442;80;21513;-62
2021/12/05 15:15:39;;;;;;;12.10;10.80;;;;;;;10.86;48.59;99414.27;1785054;79;21021;-63
2021/12/05 15:18:05;;;;;;;14.75;11.75;;;;;;;10.85;48.58;99409.13;1785770;79;21470;-63
2021/12/05 15:20:33;;;;;;;15.32;11.80;;;;;;;10.82;48.63;99419.10;1785371;79;21134;-62
2021/12/05 15:23:08;;;;;;;12.10;10.85;;;;;;;10.81;48.64;99419.27;1783211;80;21049;-62
2021/12/05 15:25:36;;;;;;;13.43;11.00;;;;;;;10.80;48.65;99422.95;1785305;80;21092;-62
2021/12/05 15:28:04;;;;;;;12.58;11.03;;;;;;;10.76;48.64;99422.47;1791878;80;21096;-62
2021/12/05 15:30:35;;;;;;;14.03;11.65;;;;;;;10.75;48.65;99430.61;1789731;79;21045;-63
2021/12/05 15:33:05;;;;;;;13.62;11.57;;;;;;;10.73;48.65;99438.76;1789371;79;21111;-63
2021/12/05 15:35:32;;;;;;;13.40;10.80;;;;;;;10.71;48.68;99440.77;1788438;80;21084;-63
2021/12/05 15:38:05;;;;;;;13.83;11.25;;;;;;;10.71;48.67;99430.14;1786142;79;21036;-63
2021/12/05 15:40:33;;;;;;;16.23;12.95;;;;;;;10.68;48.70;99424.34;1786365;80;21045;-62
2021/12/05 15:43:07;;;;;;;13.03;11.60;;;;;;;10.66;48.71;99429.83;1788035;80;21513;-62
2021/12/05 15:45:33;;;;;;;;;;;;;;;10.65;48.82;99439.33;1786389;80;21881;-61
2021/12/05 15:48:00;;;;;;;14.43;11.90;;;;;;;10.63;49.00;99423.56;1818655;78;20161;-64
2021/12/05 15:50:30;;;;;;;14.25;11.97;;;;;;;10.58;49.08;99428.05;1792352;79;21048;-62
2021/12/05 15:53:12;;;;;;;13.85;11.60;;;;;;;10.55;49.12;99426.28;1787833;79;21026;-62
2021/12/05 15:55:44;;;;;;;13.35;10.88;;;;;;;10.55;49.15;99425.77;1794194;79;21088;-61
2021/12/05 15:58:19;;;;;;;14.58;11.63;;;;;;;10.53;49.19;99421.13;1810670;77;21125;-60
2021/12/05 16:00:51;;;;;;;12.50;11.20;;;;;;;10.51;49.18;99420.98;1799250;78;21045;-62
2021/12/05 16:03:23;;;;;;;15.43;11.73;;;;;;;10.48;49.17;99416.84;1817620;77;21033;-64
2021/12/05 16:05:59;;;;;;;15.95;11.73;;;;;;;10.47;49.18;99416.53;1804143;78;20997;-63
2021/12/05 16:08:29;;;;;;;13.45;11.85;;;;;;;10.45;49.15;99417.20;1799740;79;21056;-63
2021/12/05 16:10:59;;;;;;;14.13;11.53;;;;;;;10.43;49.18;99412.06;1796708;79;22116;-63
2021/12/05 16:13:38;;;;;;;17.05;12.70;;;;;;;10.42;49.18;99409.58;1791756;79;21037;-66
2021/12/05 16:16:12;;;;;;;16.05;12.80;;;;;;;10.39;49.16;99412.09;1799572;79;21482;-61
2021/12/05 16:18:41;;;;;;;15.72;12.58;;;;;;;10.37;49.16;99411.92;1796391;79;21048;-62
2021/12/05 16:21:26;;;;;;;14.93;12.15;;;;;;;10.35;49.15;99408.13;1791620;79;21083;-62
2021/12/05 16:23:51;;;;;;;14.70;11.63;;;;;;;10.35;49.17;99403.30;1795725;78;21109;-62
2021/12/05 16:26:24;;;;;;;13.13;11.65;;;;;;;10.32;49.16;99403.67;1816390;78;21020;-62
2021/12/05 16:28:55;;;;;;;16.03;12.90;;;;;;;10.30;49.16;99411.80;1813983;77;21005;-61
2021/12/05 16:31:35;;;;;;;14.40;11.75;;;;;;;10.29;49.16;99415.92;1786206;79;21846;-61
2021/12/05 16:34:06;;;;;;;14.47;11.93;;;;;;;10.26;49.18;99410.47;1792430;80;20993;-60
2021/12/05 16:36:42;;;;;;;14.50;12.47;;;;;;;10.25;49.18;99418.09;1818835;78;22066;-62
2021/12/05 16:39:16;;;;;;;14.43;11.80;;;;;;;10.22;49.17;99408.66;1787106;79;21092;-62
2021/12/05 16:41:51;;;;;;;13.53;11.97;;;;;;;10.19;49.18;99402.36;1800854;78;21049;-62
2021/12/05 16:44:21;;;;;;;17.12;13.03;;;;;;;10.17;49.20;99389.77;1785808;80;21093;-62
2021/12/05 16:47:00;;;;;;;15.43;12.70;;;;;;;10.16;49.20;99395.23;1805142;77;21067;-63
2021/12/05 16:49:33;;;;;;;16.55;12.00;;;;;;;10.15;49.22;99390.95;1821063;77;21049;-62
2021/12/05 16:52:03;;;;;;;14.73;12.37;;;;;;;10.13;49.21;99390.30;1800985;79;21009;-63
2021/12/05 16:54:43;;;;;;;15.88;13.38;;;;;;;10.11;49.25;99402.41;1792591;79;21519;-61